createdAt,value
2023-04-05T00:02:29.901Z,4.97
2023-04-05T00:04:57.537Z,4.40
2023-04-05T00:07:24.594Z,4.90
2023-04-05T00:09:51.820Z,4.80
2023-04-05T00:12:18.574Z,5.20
2023-04-05T00:14:45.903Z,5.23
2023-04-05T00:17:13.315Z,4.93
2023-04-05T00:19:40.402Z,5.37
2023-04-05T00:22:10.918Z,5.20
2023-04-05T00:24:42.000Z,4.70
2023-04-05T00:27:08.972Z,5.20
2023-04-05T00:29:36.106Z,4.60
2023-04-05T00:32:04.625Z,6.13
2023-04-05T00:34:33.527Z,4.67
2023-04-05T00:37:00.504Z,5.13
2023-04-05T00:39:27.619Z,5.53
2023-04-05T00:41:54.498Z,5.20
2023-04-05T00:44:21.731Z,5.13
2023-04-05T00:46:48.597Z,6.03
2023-04-05T00:49:16.201Z,5.17
2023-04-05T00:51:43.763Z,6.10
2023-04-05T00:54:11.735Z,5.87
2023-04-05T00:56:38.764Z,5.90
2023-04-05T00:59:06.012Z,6.00
2023-04-05T01:01:37.981Z,5.00
2023-04-05T01:04:06.414Z,4.97
2023-04-05T01:06:40.793Z,5.17
2023-04-05T01:09:29.638Z,5.73
2023-04-05T01:12:00.925Z,4.40
2023-04-05T01:14:28.024Z,5.27
2023-04-05T01:16:58.392Z,5.27
2023-04-05T01:19:30.028Z,4.93
2023-04-05T01:22:21.982Z,5.30
2023-04-05T01:25:50.643Z,5.03
2023-04-05T01:28:57.810Z,4.57
2023-04-05T01:31:42.438Z,5.10
2023-04-05T01:34:28.141Z,5.73
2023-04-05T01:37:01.593Z,5.93
2023-04-05T01:39:30.026Z,5.70
2023-04-05T01:42:01.256Z,5.80
2023-04-05T01:44:29.121Z,6.73
2023-04-05T01:46:56.761Z,5.83
2023-04-05T01:49:24.661Z,5.83
2023-04-05T01:51:51.803Z,5.07
2023-04-05T01:54:18.632Z,6.40
2023-04-05T01:56:46.138Z,5.93
2023-04-05T01:59:12.947Z,6.67
2023-04-05T02:01:39.992Z,6.23
2023-04-05T02:04:06.740Z,6.17
2023-04-05T02:06:33.902Z,5.97
2023-04-05T02:09:01.920Z,6.43
2023-04-05T02:11:29.069Z,6.10
2023-04-05T02:13:58.583Z,5.83
2023-04-05T02:16:27.273Z,7.57
2023-04-05T02:18:57.907Z,6.40
2023-04-05T02:21:26.224Z,6.40
2023-04-05T02:23:54.096Z,6.90
2023-04-05T02:26:21.407Z,7.13
2023-04-05T02:28:48.315Z,7.43
2023-04-05T02:31:15.622Z,6.70
2023-04-05T02:33:42.910Z,6.13
2023-04-05T02:36:13.319Z,7.00
2023-04-05T02:38:40.821Z,6.40
2023-04-05T02:41:13.974Z,7.07
2023-04-05T02:43:41.178Z,7.13
2023-04-05T02:46:08.252Z,7.57
2023-04-05T02:48:39.517Z,7.90
2023-04-05T02:51:07.391Z,7.70
2023-04-05T02:53:34.984Z,7.63
2023-04-05T02:56:08.730Z,7.30
2023-04-05T02:58:41.671Z,8.03
2023-04-05T03:01:09.709Z,7.57
2023-04-05T03:03:37.467Z,7.93
2023-04-05T03:06:13.439Z,8.30
2023-04-05T03:08:49.056Z,7.93
2023-04-05T03:11:20.892Z,8.33
2023-04-05T03:13:51.778Z,8.23
2023-04-05T03:16:34.545Z,8.87
2023-04-05T03:19:09.143Z,7.60
2023-04-05T03:21:41.118Z,7.20
2023-04-05T03:24:20.675Z,8.33
2023-04-05T03:26:51.792Z,8.20
2023-04-05T03:29:21.933Z,7.97
2023-04-05T03:31:51.875Z,8.70
2023-04-05T03:34:22.294Z,8.33
2023-04-05T03:36:50.463Z,9.13
2023-04-05T03:39:27.452Z,8.63
2023-04-05T03:41:56.765Z,9.50
2023-04-05T03:44:23.474Z,7.60
2023-04-05T03:46:50.622Z,10.20
2023-04-05T03:49:17.429Z,9.80
2023-04-05T03:51:44.792Z,9.17
2023-04-05T03:54:11.879Z,9.57
2023-04-05T03:56:39.605Z,9.07
2023-04-05T03:59:14.238Z,8.37
2023-04-05T04:01:42.272Z,9.93
2023-04-05T04:04:09.047Z,8.93
2023-04-05T04:06:37.287Z,9.37
2023-04-05T04:09:05.720Z,9.37
2023-04-05T04:11:33.052Z,7.83
2023-04-05T04:14:03.174Z,8.93
2023-04-05T04:16:48.798Z,8.63
2023-04-05T04:19:41.623Z,11.17
2023-04-05T04:22:26.548Z,9.40
2023-04-05T04:25:20.329Z,9.70
2023-04-05T04:28:08.063Z,9.33
2023-04-05T04:31:04.971Z,9.53
2023-04-05T04:33:53.352Z,9.23
2023-04-05T04:36:48.157Z,9.37
2023-04-05T04:39:27.476Z,9.70
2023-04-05T04:42:13.360Z,8.87
2023-04-05T04:45:02.657Z,10.30
2023-04-05T04:47:49.777Z,8.97
2023-04-05T04:50:37.695Z,10.20
2023-04-05T04:53:04.479Z,9.43
2023-04-05T04:55:33.510Z,10.13
2023-04-05T04:58:00.558Z,9.87
2023-04-05T05:00:27.665Z,9.10
2023-04-05T05:02:56.208Z,9.13
2023-04-05T05:05:23.428Z,9.10
2023-04-05T05:07:52.614Z,9.60
2023-04-05T05:10:20.080Z,9.60
2023-04-05T05:12:48.697Z,9.27
2023-04-05T05:15:16.309Z,9.30
2023-04-05T05:17:43.187Z,11.33
2023-04-05T05:20:11.240Z,9.23
2023-04-05T05:22:40.847Z,9.47
2023-04-05T05:25:08.758Z,8.60
2023-04-05T05:27:35.872Z,9.37
2023-04-05T05:30:03.934Z,9.97
2023-04-05T05:32:31.147Z,10.33
2023-04-05T05:34:58.200Z,9.77
2023-04-05T05:37:32.864Z,10.87
2023-04-05T05:40:00.247Z,10.03
2023-04-05T05:42:27.628Z,9.80
2023-04-05T05:44:54.741Z,8.97
2023-04-05T05:47:21.751Z,9.90
2023-04-05T05:49:49.749Z,10.20
2023-04-05T05:52:16.915Z,9.63
2023-04-05T05:54:43.907Z,10.50
2023-04-05T05:57:10.873Z,11.33
2023-04-05T05:59:37.913Z,13.77
2023-04-05T06:02:04.835Z,18.33
2023-04-05T06:04:32.031Z,15.93
2023-04-05T06:06:59.095Z,15.93
2023-04-05T06:09:26.919Z,15.23
2023-04-05T06:11:56.958Z,18.37
2023-04-05T06:14:25.471Z,16.23
2023-04-05T06:16:52.402Z,15.77
2023-04-05T06:19:19.394Z,15.60
2023-04-05T06:21:46.315Z,12.37
2023-04-05T06:24:13.362Z,12.30
2023-04-05T06:26:40.124Z,11.00
2023-04-05T06:29:07.217Z,11.87
2023-04-05T06:31:35.775Z,12.00
2023-04-05T06:34:03.101Z,14.03
2023-04-05T06:36:31.768Z,11.70
2023-04-05T06:38:59.486Z,6.23
2023-04-05T06:41:27.837Z,6.10
2023-04-05T06:43:56.116Z,4.60
2023-04-05T06:46:23.217Z,4.57
2023-04-05T06:48:51.610Z,5.00
2023-04-05T06:51:18.593Z,4.07
2023-04-05T06:53:45.774Z,5.10
2023-04-05T06:56:12.745Z,3.93
2023-04-05T06:58:39.772Z,3.58
2023-04-05T07:01:07.501Z,3.83
2023-04-05T07:03:34.682Z,4.63
2023-04-05T07:06:01.880Z,5.60
2023-04-05T07:08:31.358Z,4.22
2023-04-05T07:10:58.590Z,4.00
2023-04-05T07:13:25.705Z,3.95
2023-04-05T07:15:59.225Z,2.80
2023-04-05T07:18:26.509Z,2.90
2023-04-05T07:21:00.019Z,2.90
2023-04-05T07:23:28.327Z,4.68
2023-04-05T07:25:55.789Z,2.60
2023-04-05T07:28:23.038Z,2.75
2023-04-05T07:30:50.030Z,2.25
2023-04-05T07:33:17.080Z,1.88
2023-04-05T07:35:43.924Z,2.28
2023-04-05T07:38:11.364Z,3.80
2023-04-05T07:40:38.289Z,2.50
2023-04-05T07:43:05.467Z,1.77
2023-04-05T07:45:32.220Z,1.08
2023-04-05T07:47:59.231Z,1.10
2023-04-05T07:50:27.355Z,1.52
2023-04-05T07:52:54.353Z,1.95
2023-04-05T07:55:21.462Z,1.70
2023-04-05T07:57:48.532Z,2.13
2023-04-05T08:00:15.521Z,2.45
2023-04-05T08:02:42.851Z,1.73
2023-04-05T08:05:09.810Z,1.60
2023-04-05T08:07:36.878Z,1.75
2023-04-05T08:10:04.775Z,1.88
2023-04-05T08:12:32.383Z,1.13
2023-04-05T08:14:59.077Z,1.88
2023-04-05T08:17:28.165Z,9.30
2023-04-05T08:19:55.118Z,1.90
2023-04-05T08:22:22.226Z,1.63
2023-04-05T08:24:49.019Z,1.23
2023-04-05T08:27:16.249Z,0.98
2023-04-05T08:29:43.027Z,1.80
2023-04-05T08:32:10.101Z,1.92
2023-04-05T08:34:36.944Z,3.28
2023-04-05T08:37:03.922Z,2.28
2023-04-05T08:39:31.064Z,2.17
2023-04-05T08:42:07.716Z,2.17
2023-04-05T08:44:37.004Z,1.20
2023-04-05T08:47:04.163Z,1.00
2023-04-05T08:49:30.987Z,1.50
2023-04-05T08:52:01.045Z,1.27
2023-04-05T08:54:27.885Z,1.40
2023-04-05T08:56:58.072Z,1.33
2023-04-05T08:59:26.523Z,1.38
2023-04-05T09:01:54.959Z,1.20
2023-04-05T09:04:24.298Z,1.02
2023-04-05T09:06:52.437Z,1.67
2023-04-05T09:09:21.190Z,1.25
2023-04-05T09:11:48.883Z,1.55
2023-04-05T09:14:16.948Z,1.85
2023-04-05T09:16:44.253Z,1.35
2023-04-05T09:19:11.271Z,1.23
2023-04-05T09:22:04.318Z,1.73
2023-04-05T09:24:41.752Z,1.50
2023-04-05T09:27:10.992Z,1.30
2023-04-05T09:29:40.934Z,1.40
2023-04-05T09:32:10.633Z,1.42
2023-04-05T09:34:39.230Z,1.67
2023-04-05T09:37:20.317Z,1.30
2023-04-05T09:39:52.220Z,1.40
2023-04-05T09:42:22.952Z,1.37
2023-04-05T09:44:55.833Z,1.30
2023-04-05T09:47:32.530Z,1.40
2023-04-05T09:50:07.331Z,1.57
2023-04-05T09:52:35.247Z,1.60
2023-04-05T09:55:03.919Z,1.43
2023-04-05T09:57:35.496Z,1.17
2023-04-05T10:00:02.693Z,1.90
2023-04-05T10:02:37.734Z,1.47
2023-04-05T10:05:13.387Z,3.30
2023-04-05T10:07:41.316Z,2.83
2023-04-05T10:10:16.144Z,2.30
2023-04-05T10:12:43.170Z,1.50
2023-04-05T10:15:11.471Z,1.30
2023-04-05T10:17:49.996Z,1.50
2023-04-05T10:20:24.098Z,1.92
2023-04-05T10:23:09.238Z,1.90
2023-04-05T10:25:54.557Z,2.03
2023-04-05T10:28:37.514Z,1.83
2023-04-05T10:31:36.222Z,2.70
2023-04-05T10:34:09.075Z,3.88
2023-04-05T10:36:59.300Z,3.72
2023-04-05T10:39:29.183Z,1.83
2023-04-05T10:42:01.972Z,2.53
2023-04-05T10:44:34.010Z,2.15
2023-04-05T10:47:02.580Z,1.77
2023-04-05T10:49:49.822Z,2.05
2023-04-05T10:52:17.867Z,2.08
2023-04-05T10:54:45.478Z,2.47
2023-04-05T10:57:13.403Z,1.95
2023-04-05T10:59:43.861Z,2.30
2023-04-05T11:02:12.093Z,2.05
2023-04-05T11:04:41.927Z,2.60
2023-04-05T11:07:19.670Z,1.83
2023-04-05T11:10:00.178Z,1.90
2023-04-05T11:12:48.450Z,2.10
2023-04-05T11:15:27.874Z,1.70
2023-04-05T11:18:06.646Z,2.17
2023-04-05T11:20:44.211Z,2.38
2023-04-05T11:23:12.755Z,2.58
2023-04-05T11:25:41.436Z,2.65
2023-04-05T11:28:11.985Z,2.08
2023-04-05T11:30:51.435Z,2.08
2023-04-05T11:33:56.672Z,2.00
2023-04-05T11:36:32.588Z,2.08
2023-04-05T11:39:24.041Z,2.22
2023-04-05T11:42:01.193Z,2.92
2023-04-05T11:44:29.416Z,2.72
2023-04-05T11:46:56.917Z,2.78
2023-04-05T11:49:25.090Z,2.15
2023-04-05T11:51:53.312Z,2.55
2023-04-05T11:54:33.619Z,2.42
2023-04-05T11:57:01.975Z,2.53
2023-04-05T11:59:35.952Z,2.53
2023-04-05T12:02:06.133Z,2.27
2023-04-05T12:04:33.101Z,4.25
2023-04-05T12:07:12.241Z,2.20
2023-04-05T12:10:04.274Z,2.35
2023-04-05T12:12:39.797Z,2.22
2023-04-05T12:15:11.761Z,2.90
2023-04-05T12:17:43.197Z,2.30
2023-04-05T12:20:11.792Z,2.35
2023-04-05T12:22:40.299Z,2.28
2023-04-05T12:25:08.955Z,2.67
2023-04-05T12:27:36.251Z,2.15
2023-04-05T12:30:14.731Z,2.17
2023-04-05T12:32:44.243Z,2.30
2023-04-05T12:35:17.244Z,2.17
2023-04-05T12:37:44.404Z,2.28
2023-04-05T12:40:11.966Z,2.38
2023-04-05T12:42:40.467Z,2.08
2023-04-05T12:45:12.944Z,2.30
2023-04-05T12:47:52.825Z,2.10
2023-04-05T12:50:25.749Z,2.65
2023-04-05T12:52:53.505Z,2.60
2023-04-05T12:55:21.498Z,2.00
2023-04-05T12:57:54.484Z,2.85
2023-04-05T13:00:26.176Z,3.13
2023-04-05T13:02:55.211Z,3.17
2023-04-05T13:05:29.938Z,2.40
2023-04-05T13:07:58.332Z,2.53
2023-04-05T13:10:26.041Z,2.47
2023-04-05T13:12:53.074Z,2.67
2023-04-05T13:15:20.053Z,3.40
2023-04-05T13:17:49.868Z,3.00
2023-04-05T13:20:18.004Z,2.22
2023-04-05T13:22:46.187Z,2.67
2023-04-05T13:25:14.678Z,2.90
2023-04-05T13:27:42.034Z,2.50
2023-04-05T13:30:09.577Z,3.00
2023-04-05T13:32:36.736Z,2.13
2023-04-05T13:35:03.705Z,2.53
2023-04-05T13:37:30.958Z,2.43
2023-04-05T13:39:57.796Z,2.23
2023-04-05T13:42:24.792Z,2.43
2023-04-05T13:44:51.821Z,3.20
2023-04-05T13:47:19.969Z,3.17
2023-04-05T13:49:46.782Z,3.30
2023-04-05T13:52:13.841Z,2.87
2023-04-05T13:54:40.531Z,2.50
2023-04-05T13:57:08.433Z,2.53
2023-04-05T13:59:35.364Z,2.50
2023-04-05T14:02:02.500Z,2.93
2023-04-05T14:04:29.695Z,2.70
2023-04-05T14:06:56.753Z,2.47
2023-04-05T14:09:23.754Z,2.47
2023-04-05T14:11:50.750Z,2.43
2023-04-05T14:14:17.486Z,2.17
2023-04-05T14:16:44.620Z,3.90
2023-04-05T14:19:11.338Z,2.17
2023-04-05T14:21:38.388Z,2.37
2023-04-05T14:24:05.485Z,2.60
2023-04-05T14:26:32.519Z,1.90
2023-04-05T14:28:59.307Z,2.33
2023-04-05T14:31:26.400Z,2.37
2023-04-05T14:33:53.213Z,2.10
2023-04-05T14:36:20.260Z,2.63
2023-04-05T14:38:47.689Z,2.50
2023-04-05T14:41:14.741Z,2.43
2023-04-05T14:43:41.946Z,2.37
2023-04-05T14:46:09.003Z,2.40
2023-04-05T14:48:37.357Z,2.00
2023-04-05T14:51:04.734Z,2.30
2023-04-05T14:53:31.808Z,2.70
2023-04-05T14:55:58.885Z,2.43
2023-04-05T14:58:25.706Z,2.27
2023-04-05T15:00:52.839Z,2.90
2023-04-05T15:03:20.247Z,2.63
2023-04-05T15:05:48.099Z,2.40
2023-04-05T15:08:15.597Z,2.70
2023-04-05T15:10:43.160Z,3.60
2023-04-05T15:13:11.721Z,2.07
2023-04-05T15:15:39.257Z,2.47
2023-04-05T15:18:08.065Z,2.87
2023-04-05T15:20:35.699Z,2.87
2023-04-05T15:23:02.786Z,2.90
2023-04-05T15:25:29.826Z,2.63
2023-04-05T15:27:59.088Z,2.27
2023-04-05T15:30:28.065Z,2.90
2023-04-05T15:32:55.489Z,2.93
2023-04-05T15:35:22.589Z,3.20
2023-04-05T15:37:49.381Z,2.53
2023-04-05T15:40:16.502Z,3.03
2023-04-05T15:42:43.338Z,3.83
2023-04-05T15:45:10.920Z,2.80
2023-04-05T15:47:38.856Z,2.73
2023-04-05T15:50:06.491Z,3.40
2023-04-05T15:52:34.313Z,2.60
2023-04-05T15:55:01.427Z,3.07
2023-04-05T15:57:28.238Z,2.57
2023-04-05T15:59:55.239Z,2.57
2023-04-05T16:02:22.011Z,3.47
2023-04-05T16:04:49.088Z,2.70
2023-04-05T16:07:15.878Z,2.30
2023-04-05T16:09:42.872Z,2.03
2023-04-05T16:12:09.679Z,2.10
2023-04-05T16:14:36.781Z,2.40
2023-04-05T16:17:03.585Z,2.57
2023-04-05T16:19:31.514Z,2.40
2023-04-05T16:22:00.026Z,2.23
2023-04-05T16:24:27.732Z,2.40
2023-04-05T16:26:54.506Z,2.90
2023-04-05T16:29:21.472Z,10.10
2023-04-05T16:31:48.257Z,12.47
2023-04-05T16:34:15.637Z,18.83
2023-04-05T16:36:42.504Z,13.40
2023-04-05T16:39:09.590Z,10.93
2023-04-05T16:41:36.327Z,4.30
2023-04-05T16:44:03.864Z,5.90
2023-04-05T16:46:32.253Z,3.37
2023-04-05T16:49:00.373Z,4.20
2023-04-05T16:51:28.111Z,4.60
2023-04-05T16:53:55.411Z,3.40
2023-04-05T16:56:23.392Z,3.57
2023-04-05T16:58:51.295Z,3.43
2023-04-05T17:01:18.077Z,3.60
2023-04-05T17:03:48.073Z,3.97
2023-04-05T17:06:15.696Z,4.07
2023-04-05T17:08:42.717Z,4.50
2023-04-05T17:11:09.574Z,3.93
2023-04-05T17:13:36.660Z,4.67
2023-04-05T17:16:03.637Z,4.47
2023-04-05T17:18:30.911Z,3.73
2023-04-05T17:20:57.695Z,3.47
2023-04-05T17:23:25.570Z,3.53
2023-04-05T17:25:52.420Z,4.17
2023-04-05T17:28:19.606Z,3.97
2023-04-05T17:30:46.753Z,4.13
2023-04-05T17:33:13.802Z,3.80
2023-04-05T17:35:40.655Z,4.20
2023-04-05T17:38:07.814Z,3.90
2023-04-05T17:40:34.501Z,4.10
2023-04-05T17:43:01.538Z,4.37
2023-04-05T17:45:28.626Z,4.90
2023-04-05T17:47:56.232Z,5.17
2023-04-05T17:50:24.880Z,5.23
2023-04-05T17:52:52.057Z,4.87
2023-04-05T17:55:18.760Z,5.57
2023-04-05T17:57:45.924Z,4.67
2023-04-05T18:00:13.188Z,4.70
2023-04-05T18:02:41.473Z,5.00
2023-04-05T18:05:10.080Z,4.80
2023-04-05T18:07:38.017Z,5.33
2023-04-05T18:10:06.352Z,6.80
2023-04-05T18:12:34.212Z,6.07
2023-04-05T18:15:01.063Z,6.33
2023-04-05T18:17:28.305Z,6.17
2023-04-05T18:19:55.157Z,5.93
2023-04-05T18:22:22.208Z,13.80
2023-04-05T18:24:48.975Z,21.83
2023-04-05T18:27:16.122Z,24.30
2023-04-05T18:29:42.890Z,20.83
2023-04-05T18:32:10.210Z,21.37
2023-04-05T18:34:36.971Z,21.47
2023-04-05T18:37:04.242Z,17.43
2023-04-05T18:39:31.464Z,11.00
2023-04-05T18:41:59.572Z,10.00
2023-04-05T18:44:27.229Z,10.23
2023-04-05T18:46:54.321Z,10.40
2023-04-05T18:49:21.242Z,12.17
2023-04-05T18:51:48.916Z,19.83
2023-04-05T18:54:18.351Z,23.57
2023-04-05T18:56:46.071Z,15.57
2023-04-05T18:59:12.832Z,11.77
2023-04-05T19:01:39.865Z,11.07
2023-04-05T19:04:07.398Z,10.33
2023-04-05T19:06:35.001Z,11.10
2023-04-05T19:09:02.270Z,11.73
2023-04-05T19:11:29.381Z,11.73
2023-04-05T19:13:56.384Z,10.37
2023-04-05T19:16:23.484Z,10.50
2023-04-05T19:18:50.358Z,9.07
2023-04-05T19:21:17.393Z,8.90
2023-04-05T19:23:44.165Z,10.27
2023-04-05T19:26:12.189Z,11.93
2023-04-05T19:28:39.085Z,12.93
2023-04-05T19:31:06.367Z,13.60
2023-04-05T19:33:33.457Z,10.10
2023-04-05T19:36:01.678Z,9.03
2023-04-05T19:38:28.798Z,7.80
2023-04-05T19:40:56.406Z,8.67
2023-04-05T19:43:24.455Z,10.10
2023-04-05T19:45:56.851Z,16.50
2023-04-05T19:48:40.239Z,18.37
2023-04-05T19:51:12.129Z,9.07
2023-04-05T19:53:51.576Z,10.47
2023-04-05T19:56:28.430Z,12.27
2023-04-05T19:59:03.265Z,10.30
2023-04-05T20:01:36.590Z,8.13
2023-04-05T20:04:14.798Z,7.47
2023-04-05T20:06:43.723Z,7.93
2023-04-05T20:09:16.057Z,8.57
2023-04-05T20:11:47.240Z,14.53
2023-04-05T20:14:14.230Z,14.57
2023-04-05T20:16:41.570Z,12.83
2023-04-05T20:19:10.102Z,12.67
2023-04-05T20:21:38.031Z,13.50
2023-04-05T20:24:09.024Z,12.87
2023-04-05T20:26:36.428Z,12.43
2023-04-05T20:29:07.935Z,12.33
2023-04-05T20:31:39.206Z,11.07
2023-04-05T20:34:14.786Z,9.33
2023-04-05T20:36:49.492Z,8.50
2023-04-05T20:39:16.429Z,9.03
2023-04-05T20:41:45.607Z,8.10
2023-04-05T20:44:12.352Z,8.03
2023-04-05T20:46:39.404Z,7.77
2023-04-05T20:49:06.705Z,8.10
2023-04-05T20:51:34.422Z,7.77
2023-04-05T20:54:01.315Z,8.17
2023-04-05T20:56:28.370Z,8.67
2023-04-05T20:58:55.942Z,8.67
2023-04-05T21:01:23.628Z,8.10
2023-04-05T21:03:50.508Z,9.53
2023-04-05T21:06:17.601Z,7.90
2023-04-05T21:08:44.301Z,42.70
2023-04-05T21:11:14.338Z,26.67
2023-04-05T21:13:41.663Z,26.87
2023-04-05T21:16:09.610Z,23.40
2023-04-05T21:18:36.575Z,22.07
2023-04-05T21:21:04.519Z,26.17
2023-04-05T21:23:33.498Z,23.10
2023-04-05T21:26:01.604Z,15.17
2023-04-05T21:28:28.418Z,12.20
2023-04-05T21:30:55.488Z,11.03
2023-04-05T21:33:23.016Z,11.03
2023-04-05T21:35:50.774Z,10.43
2023-04-05T21:38:18.129Z,9.27
2023-04-05T21:40:45.220Z,8.07
2023-04-05T21:43:12.989Z,9.47
2023-04-05T21:45:40.040Z,9.20
2023-04-05T21:48:06.867Z,8.23
2023-04-05T21:50:34.058Z,8.23
2023-04-05T21:53:00.872Z,8.97
2023-04-05T21:55:27.907Z,9.97
2023-04-05T21:57:54.702Z,9.03
2023-04-05T22:00:21.797Z,9.20
2023-04-05T22:02:48.693Z,10.47
2023-04-05T22:05:29.435Z,10.23
2023-04-05T22:08:01.752Z,9.73
2023-04-05T22:10:28.956Z,8.10
2023-04-05T22:12:56.086Z,8.70
2023-04-05T22:15:23.052Z,8.37
2023-04-05T22:17:49.875Z,8.40
2023-04-05T22:20:17.063Z,7.83
2023-04-05T22:22:43.794Z,7.57
2023-04-05T22:25:10.842Z,7.93
2023-04-05T22:27:37.716Z,7.83
2023-04-05T22:30:06.542Z,8.30
2023-04-05T22:32:33.502Z,7.90
2023-04-05T22:35:00.908Z,8.87
2023-04-05T22:37:27.881Z,9.37
2023-04-05T22:39:54.965Z,9.77
2023-04-05T22:42:21.803Z,10.00
2023-04-05T22:44:50.062Z,11.03
2023-04-05T22:47:16.802Z,11.60
2023-04-05T22:49:43.794Z,12.03
2023-04-05T22:52:10.829Z,16.87
2023-04-05T22:54:37.839Z,17.50
2023-04-05T22:57:04.603Z,15.00
2023-04-05T22:59:38.678Z,15.60
2023-04-05T23:02:05.485Z,14.97
2023-04-05T23:04:32.526Z,14.33
2023-04-05T23:06:59.267Z,13.97
2023-04-05T23:09:27.410Z,16.37
2023-04-05T23:11:54.132Z,20.53
2023-04-05T23:14:21.595Z,21.27
2023-04-05T23:16:48.474Z,20.30
2023-04-05T23:19:16.483Z,20.07
2023-04-05T23:21:43.294Z,28.30
2023-04-05T23:24:10.949Z,25.20
2023-04-05T23:26:38.145Z,25.90
2023-04-05T23:29:05.181Z,21.30
2023-04-05T23:31:32.114Z,21.97
2023-04-05T23:33:59.204Z,27.17
2023-04-05T23:36:26.054Z,30.03
2023-04-05T23:38:53.150Z,39.60
2023-04-05T23:41:19.981Z,36.07
2023-04-05T23:43:47.180Z,27.20
2023-04-05T23:46:13.912Z,27.63
2023-04-05T23:48:41.324Z,27.33
2023-04-05T23:51:08.265Z,25.03
2023-04-05T23:53:35.422Z,30.30
2023-04-05T23:56:02.780Z,30.13
2023-04-05T23:58:29.780Z,29.00
